sensor_id;sensor_type;location;lat;lon;timestamp;P1;durP1;ratioP1;P2;durP2;ratioP2
75798;SDS011;65035;44.726;37.764;2023-01-15T00:00:24;4.43;;;2.30;;
75798;SDS011;65035;44.726;37.764;2023-01-15T00:01:30;3.90;;;2.00;;
75798;SDS011;65035;44.726;37.764;2023-01-15T00:02:37;3.83;;;3.05;;
75798;SDS011;65035;44.726;37.764;2023-01-15T00:04:01;3.83;;;2.40;;
75798;SDS011;65035;44.726;37.764;2023-01-15T00:05:10;3.35;;;2.40;;
75798;SDS011;65035;44.726;37.764;2023-01-15T00:06:15;4.22;;;2.47;;
75798;SDS011;65035;44.726;37.764;2023-01-15T00:07:22;3.95;;;2.72;;
75798;SDS011;65035;44.726;37.764;2023-01-15T00:08:26;4.15;;;2.25;;
75798;SDS011;65035;44.726;37.764;2023-01-15T00:09:31;4.78;;;2.40;;
75798;SDS011;65035;44.726;37.764;2023-01-15T00:10:35;4.72;;;2.95;;
75798;SDS011;65035;44.726;37.764;2023-01-15T00:11:38;4.35;;;2.90;;
75798;SDS011;65035;44.726;37.764;2023-01-15T00:13:02;4.20;;;2.38;;
75798;SDS011;65035;44.726;37.764;2023-01-15T00:14:25;4.07;;;2.90;;
75798;SDS011;65035;44.726;37.764;2023-01-15T00:15:31;3.65;;;2.50;;
75798;SDS011;65035;44.726;37.764;2023-01-15T00:16:54;4.78;;;2.38;;
75798;SDS011;65035;44.726;37.764;2023-01-15T00:17:59;4.18;;;2.95;;
75798;SDS011;65035;44.726;37.764;2023-01-15T00:19:04;3.72;;;2.55;;
75798;SDS011;65035;44.726;37.764;2023-01-15T00:20:11;4.50;;;2.88;;
75798;SDS011;65035;44.726;37.764;2023-01-15T00:21:34;3.70;;;2.28;;
75798;SDS011;65035;44.726;37.764;2023-01-15T00:22:58;3.00;;;1.70;;
75798;SDS011;65035;44.726;37.764;2023-01-15T00:24:03;3.22;;;2.20;;
75798;SDS011;65035;44.726;37.764;2023-01-15T00:25:26;4.30;;;2.45;;
75798;SDS011;65035;44.726;37.764;2023-01-15T00:26:48;4.43;;;2.78;;
75798;SDS011;65035;44.726;37.764;2023-01-15T00:29:20;3.40;;;2.40;;
75798;SDS011;65035;44.726;37.764;2023-01-15T00:30:24;4.00;;;2.25;;
75798;SDS011;65035;44.726;37.764;2023-01-15T00:31:28;3.30;;;2.13;;
75798;SDS011;65035;44.726;37.764;2023-01-15T00:32:35;3.72;;;2.25;;
75798;SDS011;65035;44.726;37.764;2023-01-15T00:33:40;3.63;;;2.25;;
75798;SDS011;65035;44.726;37.764;2023-01-15T00:34:50;3.53;;;2.35;;
75798;SDS011;65035;44.726;37.764;2023-01-15T00:35:55;3.55;;;2.22;;
75798;SDS011;65035;44.726;37.764;2023-01-15T00:37:00;3.70;;;2.05;;
75798;SDS011;65035;44.726;37.764;2023-01-15T00:38:24;4.25;;;2.58;;
75798;SDS011;65035;44.726;37.764;2023-01-15T00:39:50;3.55;;;2.50;;
75798;SDS011;65035;44.726;37.764;2023-01-15T00:41:06;3.17;;;2.13;;
75798;SDS011;65035;44.726;37.764;2023-01-15T00:42:10;4.90;;;3.13;;
75798;SDS011;65035;44.726;37.764;2023-01-15T00:43:16;4.68;;;2.72;;
75798;SDS011;65035;44.726;37.764;2023-01-15T00:44:20;3.47;;;2.22;;
75798;SDS011;65035;44.726;37.764;2023-01-15T00:46:21;4.88;;;2.78;;
75798;SDS011;65035;44.726;37.764;2023-01-15T00:47:27;4.25;;;3.60;;
75798;SDS011;65035;44.726;37.764;2023-01-15T00:48:31;3.28;;;2.10;;
75798;SDS011;65035;44.726;37.764;2023-01-15T00:49:34;3.65;;;2.30;;
75798;SDS011;65035;44.726;37.764;2023-01-15T00:50:38;3.47;;;2.03;;
75798;SDS011;65035;44.726;37.764;2023-01-15T00:52:45;4.93;;;3.25;;
75798;SDS011;65035;44.726;37.764;2023-01-15T00:53:49;4.18;;;3.78;;
75798;SDS011;65035;44.726;37.764;2023-01-15T00:55:41;4.32;;;2.13;;
75798;SDS011;65035;44.726;37.764;2023-01-15T00:57:06;4.10;;;1.98;;
75798;SDS011;65035;44.726;37.764;2023-01-15T00:58:14;3.75;;;1.90;;
75798;SDS011;65035;44.726;37.764;2023-01-15T00:59:18;2.75;;;1.83;;
75798;SDS011;65035;44.726;37.764;2023-01-15T01:00:21;3.50;;;2.05;;
75798;SDS011;65035;44.726;37.764;2023-01-15T01:01:27;3.13;;;2.13;;
75798;SDS011;65035;44.726;37.764;2023-01-15T01:02:31;3.88;;;1.98;;
75798;SDS011;65035;44.726;37.764;2023-01-15T01:04:23;3.83;;;3.53;;
75798;SDS011;65035;44.726;37.764;2023-01-15T01:05:47;3.85;;;3.45;;
75798;SDS011;65035;44.726;37.764;2023-01-15T01:07:59;3.58;;;2.38;;
75798;SDS011;65035;44.726;37.764;2023-01-15T01:09:03;3.75;;;1.95;;
75798;SDS011;65035;44.726;37.764;2023-01-15T01:10:27;4.18;;;2.03;;
75798;SDS011;65035;44.726;37.764;2023-01-15T01:11:31;3.97;;;1.80;;
75798;SDS011;65035;44.726;37.764;2023-01-15T01:12:56;3.55;;;2.38;;
75798;SDS011;65035;44.726;37.764;2023-01-15T01:15:08;3.45;;;2.28;;
75798;SDS011;65035;44.726;37.764;2023-01-15T01:16:30;4.25;;;2.83;;
75798;SDS011;65035;44.726;37.764;2023-01-15T01:17:57;4.57;;;2.08;;
75798;SDS011;65035;44.726;37.764;2023-01-15T01:19:01;3.83;;;2.13;;
75798;SDS011;65035;44.726;37.764;2023-01-15T01:20:07;4.32;;;2.00;;
75798;SDS011;65035;44.726;37.764;2023-01-15T01:21:15;4.07;;;2.65;;
75798;SDS011;65035;44.726;37.764;2023-01-15T01:22:39;4.05;;;2.25;;
75798;SDS011;65035;44.726;37.764;2023-01-15T01:24:04;3.83;;;2.20;;
75798;SDS011;65035;44.726;37.764;2023-01-15T01:25:10;4.18;;;2.33;;
75798;SDS011;65035;44.726;37.764;2023-01-15T01:26:15;4.15;;;2.22;;
75798;SDS011;65035;44.726;37.764;2023-01-15T01:28:08;4.38;;;2.58;;
75798;SDS011;65035;44.726;37.764;2023-01-15T01:29:13;5.30;;;2.67;;
75798;SDS011;65035;44.726;37.764;2023-01-15T01:30:19;5.45;;;2.65;;
75798;SDS011;65035;44.726;37.764;2023-01-15T01:31:43;4.82;;;2.53;;
75798;SDS011;65035;44.726;37.764;2023-01-15T01:32:47;4.85;;;2.83;;
75798;SDS011;65035;44.726;37.764;2023-01-15T01:33:54;5.38;;;3.25;;
75798;SDS011;65035;44.726;37.764;2023-01-15T01:35:19;5.70;;;3.15;;
75798;SDS011;65035;44.726;37.764;2023-01-15T01:36:43;4.57;;;3.15;;
75798;SDS011;65035;44.726;37.764;2023-01-15T01:37:50;5.50;;;2.92;;
75798;SDS011;65035;44.726;37.764;2023-01-15T01:38:53;4.18;;;2.28;;
75798;SDS011;65035;44.726;37.764;2023-01-15T01:40:17;4.22;;;3.15;;
75798;SDS011;65035;44.726;37.764;2023-01-15T01:41:23;4.40;;;2.80;;
75798;SDS011;65035;44.726;37.764;2023-01-15T01:42:28;4.95;;;2.78;;
75798;SDS011;65035;44.726;37.764;2023-01-15T01:46:33;4.35;;;2.80;;
75798;SDS011;65035;44.726;37.764;2023-01-15T01:47:39;4.40;;;2.72;;
75798;SDS011;65035;44.726;37.764;2023-01-15T01:48:43;4.95;;;3.47;;
75798;SDS011;65035;44.726;37.764;2023-01-15T01:49:48;4.38;;;2.97;;
75798;SDS011;65035;44.726;37.764;2023-01-15T01:51:45;4.75;;;2.92;;
75798;SDS011;65035;44.726;37.764;2023-01-15T01:53:19;5.95;;;3.20;;
75798;SDS011;65035;44.726;37.764;2023-01-15T01:54:26;6.00;;;3.05;;
75798;SDS011;65035;44.726;37.764;2023-01-15T01:55:53;5.45;;;3.63;;
75798;SDS011;65035;44.726;37.764;2023-01-15T01:56:59;5.00;;;2.88;;
75798;SDS011;65035;44.726;37.764;2023-01-15T01:58:05;5.15;;;3.20;;
75798;SDS011;65035;44.726;37.764;2023-01-15T01:59:15;7.00;;;3.65;;
75798;SDS011;65035;44.726;37.764;2023-01-15T02:00:22;4.85;;;2.92;;
75798;SDS011;65035;44.726;37.764;2023-01-15T02:01:47;5.47;;;2.55;;
75798;SDS011;65035;44.726;37.764;2023-01-15T02:03:11;5.47;;;3.42;;
75798;SDS011;65035;44.726;37.764;2023-01-15T02:04:17;5.32;;;4.82;;
75798;SDS011;65035;44.726;37.764;2023-01-15T02:05:37;4.70;;;2.97;;
75798;SDS011;65035;44.726;37.764;2023-01-15T02:07:04;4.70;;;2.67;;
75798;SDS011;65035;44.726;37.764;2023-01-15T02:08:11;4.75;;;3.03;;
75798;SDS011;65035;44.726;37.764;2023-01-15T02:09:16;5.40;;;3.03;;
75798;SDS011;65035;44.726;37.764;2023-01-15T02:10:20;5.68;;;3.25;;
75798;SDS011;65035;44.726;37.764;2023-01-15T02:11:24;6.05;;;2.72;;
75798;SDS011;65035;44.726;37.764;2023-01-15T02:12:35;4.60;;;3.10;;
75798;SDS011;65035;44.726;37.764;2023-01-15T02:14:04;5.43;;;3.00;;
75798;SDS011;65035;44.726;37.764;2023-01-15T02:17:59;4.70;;;3.30;;
75798;SDS011;65035;44.726;37.764;2023-01-15T02:19:52;5.45;;;3.13;;
75798;SDS011;65035;44.726;37.764;2023-01-15T02:20:47;5.93;;;3.67;;
75798;SDS011;65035;44.726;37.764;2023-01-15T02:23:52;5.30;;;3.45;;
75798;SDS011;65035;44.726;37.764;2023-01-15T02:25:27;6.53;;;2.97;;
75798;SDS011;65035;44.726;37.764;2023-01-15T02:28:42;6.25;;;5.20;;
75798;SDS011;65035;44.726;37.764;2023-01-15T02:33:10;6.40;;;5.15;;
75798;SDS011;65035;44.726;37.764;2023-01-15T02:35:53;5.72;;;5.10;;
75798;SDS011;65035;44.726;37.764;2023-01-15T02:37:27;5.25;;;4.75;;
75798;SDS011;65035;44.726;37.764;2023-01-15T02:38:36;5.72;;;5.22;;
75798;SDS011;65035;44.726;37.764;2023-01-15T02:39:46;6.03;;;5.05;;
75798;SDS011;65035;44.726;37.764;2023-01-15T02:40:53;7.65;;;6.28;;
75798;SDS011;65035;44.726;37.764;2023-01-15T02:42:01;6.45;;;5.78;;
75798;SDS011;65035;44.726;37.764;2023-01-15T02:43:15;6.95;;;6.18;;
75798;SDS011;65035;44.726;37.764;2023-01-15T02:44:21;5.30;;;4.80;;
75798;SDS011;65035;44.726;37.764;2023-01-15T02:45:30;6.10;;;4.88;;
75798;SDS011;65035;44.726;37.764;2023-01-15T02:47:32;7.28;;;3.88;;
75798;SDS011;65035;44.726;37.764;2023-01-15T02:49:00;5.55;;;3.33;;
75798;SDS011;65035;44.726;37.764;2023-01-15T02:50:10;4.82;;;3.25;;
75798;SDS011;65035;44.726;37.764;2023-01-15T02:51:20;6.72;;;3.22;;
75798;SDS011;65035;44.726;37.764;2023-01-15T02:52:29;5.78;;;4.00;;
75798;SDS011;65035;44.726;37.764;2023-01-15T02:53:41;5.35;;;3.40;;
75798;SDS011;65035;44.726;37.764;2023-01-15T02:54:54;6.70;;;4.32;;
75798;SDS011;65035;44.726;37.764;2023-01-15T02:56:24;6.68;;;3.55;;
75798;SDS011;65035;44.726;37.764;2023-01-15T02:57:33;5.40;;;3.08;;
75798;SDS011;65035;44.726;37.764;2023-01-15T02:58:42;5.57;;;3.67;;
75798;SDS011;65035;44.726;37.764;2023-01-15T03:00:08;6.70;;;3.72;;
75798;SDS011;65035;44.726;37.764;2023-01-15T03:01:45;6.30;;;3.65;;
75798;SDS011;65035;44.726;37.764;2023-01-15T03:03:06;6.28;;;3.10;;
75798;SDS011;65035;44.726;37.764;2023-01-15T03:05:32;4.40;;;2.53;;
75798;SDS011;65035;44.726;37.764;2023-01-15T03:08:16;5.85;;;3.70;;
75798;SDS011;65035;44.726;37.764;2023-01-15T03:09:21;5.53;;;3.72;;
75798;SDS011;65035;44.726;37.764;2023-01-15T03:10:30;6.07;;;4.55;;
75798;SDS011;65035;44.726;37.764;2023-01-15T03:11:43;5.70;;;3.53;;
75798;SDS011;65035;44.726;37.764;2023-01-15T03:13:01;5.65;;;3.33;;
75798;SDS011;65035;44.726;37.764;2023-01-15T03:14:21;5.30;;;3.42;;
75798;SDS011;65035;44.726;37.764;2023-01-15T03:17:45;6.65;;;3.63;;
75798;SDS011;65035;44.726;37.764;2023-01-15T03:18:55;6.22;;;3.85;;
75798;SDS011;65035;44.726;37.764;2023-01-15T03:20:12;6.05;;;3.78;;
75798;SDS011;65035;44.726;37.764;2023-01-15T03:21:27;5.70;;;3.72;;
75798;SDS011;65035;44.726;37.764;2023-01-15T03:22:38;6.30;;;3.13;;
75798;SDS011;65035;44.726;37.764;2023-01-15T03:23:48;6.80;;;3.67;;
75798;SDS011;65035;44.726;37.764;2023-01-15T03:25:00;5.20;;;3.38;;
75798;SDS011;65035;44.726;37.764;2023-01-15T03:26:15;7.03;;;3.55;;
75798;SDS011;65035;44.726;37.764;2023-01-15T03:27:19;5.20;;;3.25;;
75798;SDS011;65035;44.726;37.764;2023-01-15T03:28:29;7.38;;;3.85;;
75798;SDS011;65035;44.726;37.764;2023-01-15T03:29:39;6.35;;;3.78;;
75798;SDS011;65035;44.726;37.764;2023-01-15T03:30:46;6.88;;;4.00;;
75798;SDS011;65035;44.726;37.764;2023-01-15T03:32:10;6.72;;;3.90;;
75798;SDS011;65035;44.726;37.764;2023-01-15T03:33:33;7.00;;;3.65;;
75798;SDS011;65035;44.726;37.764;2023-01-15T03:34:58;6.15;;;3.53;;
75798;SDS011;65035;44.726;37.764;2023-01-15T03:36:02;6.72;;;4.22;;
75798;SDS011;65035;44.726;37.764;2023-01-15T03:37:15;5.85;;;3.92;;
75798;SDS011;65035;44.726;37.764;2023-01-15T03:38:20;7.63;;;3.60;;
75798;SDS011;65035;44.726;37.764;2023-01-15T03:39:28;6.68;;;3.88;;
75798;SDS011;65035;44.726;37.764;2023-01-15T03:42:59;5.50;;;3.45;;
75798;SDS011;65035;44.726;37.764;2023-01-15T03:46:05;5.55;;;3.45;;
75798;SDS011;65035;44.726;37.764;2023-01-15T03:49:15;6.28;;;3.58;;
75798;SDS011;65035;44.726;37.764;2023-01-15T03:50:42;6.45;;;3.70;;
75798;SDS011;65035;44.726;37.764;2023-01-15T03:59:06;5.68;;;3.35;;
75798;SDS011;65035;44.726;37.764;2023-01-15T04:00:50;7.18;;;3.85;;
75798;SDS011;65035;44.726;37.764;2023-01-15T04:01:58;5.97;;;4.03;;
75798;SDS011;65035;44.726;37.764;2023-01-15T04:03:06;5.65;;;3.95;;
75798;SDS011;65035;44.726;37.764;2023-01-15T04:04:13;5.97;;;4.28;;
75798;SDS011;65035;44.726;37.764;2023-01-15T04:05:19;6.18;;;3.97;;
75798;SDS011;65035;44.726;37.764;2023-01-15T04:06:26;6.75;;;4.18;;
75798;SDS011;65035;44.726;37.764;2023-01-15T04:07:53;6.05;;;3.63;;
75798;SDS011;65035;44.726;37.764;2023-01-15T04:08:59;5.60;;;3.63;;
75798;SDS011;65035;44.726;37.764;2023-01-15T04:10:08;6.25;;;3.78;;
75798;SDS011;65035;44.726;37.764;2023-01-15T04:11:12;6.10;;;3.90;;
75798;SDS011;65035;44.726;37.764;2023-01-15T04:12:41;6.25;;;4.28;;
75798;SDS011;65035;44.726;37.764;2023-01-15T04:13:48;5.80;;;3.65;;
75798;SDS011;65035;44.726;37.764;2023-01-15T04:15:57;6.43;;;3.67;;
75798;SDS011;65035;44.726;37.764;2023-01-15T04:17:01;5.30;;;3.25;;
75798;SDS011;65035;44.726;37.764;2023-01-15T04:18:06;5.90;;;3.95;;
75798;SDS011;65035;44.726;37.764;2023-01-15T04:19:10;6.35;;;4.20;;
75798;SDS011;65035;44.726;37.764;2023-01-15T04:20:21;6.35;;;3.35;;
75798;SDS011;65035;44.726;37.764;2023-01-15T04:22:15;6.82;;;4.47;;
75798;SDS011;65035;44.726;37.764;2023-01-15T04:23:38;6.20;;;3.88;;
75798;SDS011;65035;44.726;37.764;2023-01-15T04:24:42;4.90;;;3.42;;
75798;SDS011;65035;44.726;37.764;2023-01-15T04:25:47;7.10;;;3.90;;
75798;SDS011;65035;44.726;37.764;2023-01-15T04:27:11;6.88;;;3.67;;
75798;SDS011;65035;44.726;37.764;2023-01-15T04:28:15;5.90;;;4.00;;
75798;SDS011;65035;44.726;37.764;2023-01-15T04:29:20;6.22;;;3.53;;
75798;SDS011;65035;44.726;37.764;2023-01-15T04:30:24;5.65;;;3.75;;
75798;SDS011;65035;44.726;37.764;2023-01-15T04:31:28;5.47;;;3.70;;
75798;SDS011;65035;44.726;37.764;2023-01-15T04:32:35;6.63;;;4.55;;
75798;SDS011;65035;44.726;37.764;2023-01-15T04:33:59;5.88;;;3.67;;
75798;SDS011;65035;44.726;37.764;2023-01-15T04:35:22;6.50;;;3.67;;
75798;SDS011;65035;44.726;37.764;2023-01-15T04:36:26;5.85;;;3.63;;
75798;SDS011;65035;44.726;37.764;2023-01-15T04:37:53;6.35;;;3.20;;
75798;SDS011;65035;44.726;37.764;2023-01-15T04:39:03;7.13;;;3.80;;
75798;SDS011;65035;44.726;37.764;2023-01-15T04:40:27;7.63;;;4.63;;
75798;SDS011;65035;44.726;37.764;2023-01-15T04:41:49;7.20;;;3.60;;
75798;SDS011;65035;44.726;37.764;2023-01-15T04:43:12;6.50;;;3.72;;
75798;SDS011;65035;44.726;37.764;2023-01-15T04:44:35;5.15;;;3.05;;
75798;SDS011;65035;44.726;37.764;2023-01-15T04:46:37;4.45;;;2.95;;
75798;SDS011;65035;44.726;37.764;2023-01-15T04:47:47;6.68;;;4.05;;
75798;SDS011;65035;44.726;37.764;2023-01-15T04:49:12;5.95;;;3.63;;
75798;SDS011;65035;44.726;37.764;2023-01-15T04:50:17;6.68;;;3.92;;
75798;SDS011;65035;44.726;37.764;2023-01-15T04:51:21;5.90;;;3.97;;
75798;SDS011;65035;44.726;37.764;2023-01-15T04:52:25;8.20;;;3.90;;
75798;SDS011;65035;44.726;37.764;2023-01-15T04:53:29;6.20;;;3.95;;
75798;SDS011;65035;44.726;37.764;2023-01-15T04:54:33;4.38;;;3.17;;
75798;SDS011;65035;44.726;37.764;2023-01-15T04:56:46;6.90;;;5.68;;
75798;SDS011;65035;44.726;37.764;2023-01-15T04:58:12;6.40;;;3.42;;
75798;SDS011;65035;44.726;37.764;2023-01-15T04:59:17;5.18;;;3.33;;
75798;SDS011;65035;44.726;37.764;2023-01-15T05:00:24;6.18;;;3.80;;
75798;SDS011;65035;44.726;37.764;2023-01-15T05:01:28;6.38;;;3.33;;
75798;SDS011;65035;44.726;37.764;2023-01-15T05:02:32;6.10;;;3.33;;
75798;SDS011;65035;44.726;37.764;2023-01-15T05:03:37;5.35;;;3.28;;
75798;SDS011;65035;44.726;37.764;2023-01-15T05:04:40;6.88;;;3.80;;
75798;SDS011;65035;44.726;37.764;2023-01-15T05:05:44;5.43;;;3.45;;
75798;SDS011;65035;44.726;37.764;2023-01-15T05:06:50;6.82;;;4.30;;
75798;SDS011;65035;44.726;37.764;2023-01-15T05:07:55;6.78;;;3.80;;
75798;SDS011;65035;44.726;37.764;2023-01-15T05:09:46;5.93;;;3.28;;
75798;SDS011;65035;44.726;37.764;2023-01-15T05:11:13;7.55;;;5.97;;
75798;SDS011;65035;44.726;37.764;2023-01-15T05:12:18;6.05;;;3.90;;
75798;SDS011;65035;44.726;37.764;2023-01-15T05:13:22;5.40;;;4.15;;
75798;SDS011;65035;44.726;37.764;2023-01-15T05:14:27;6.45;;;5.63;;
75798;SDS011;65035;44.726;37.764;2023-01-15T05:15:31;7.22;;;6.47;;
75798;SDS011;65035;44.726;37.764;2023-01-15T05:16:36;7.05;;;6.35;;
75798;SDS011;65035;44.726;37.764;2023-01-15T05:17:40;7.68;;;6.93;;
75798;SDS011;65035;44.726;37.764;2023-01-15T05:18:45;8.38;;;5.95;;
75798;SDS011;65035;44.726;37.764;2023-01-15T05:19:49;6.95;;;3.67;;
75798;SDS011;65035;44.726;37.764;2023-01-15T05:20:53;7.72;;;5.55;;
75798;SDS011;65035;44.726;37.764;2023-01-15T05:21:59;5.95;;;5.03;;
75798;SDS011;65035;44.726;37.764;2023-01-15T05:23:02;7.03;;;6.25;;
75798;SDS011;65035;44.726;37.764;2023-01-15T05:24:07;6.45;;;3.90;;
75798;SDS011;65035;44.726;37.764;2023-01-15T05:25:35;8.70;;;5.90;;
75798;SDS011;65035;44.726;37.764;2023-01-15T05:26:40;7.43;;;6.50;;
75798;SDS011;65035;44.726;37.764;2023-01-15T05:27:44;8.30;;;6.75;;
75798;SDS011;65035;44.726;37.764;2023-01-15T05:28:48;6.85;;;5.63;;
75798;SDS011;65035;44.726;37.764;2023-01-15T05:29:55;8.05;;;3.83;;
75798;SDS011;65035;44.726;37.764;2023-01-15T05:31:04;6.93;;;5.43;;
75798;SDS011;65035;44.726;37.764;2023-01-15T05:32:13;7.20;;;5.80;;
75798;SDS011;65035;44.726;37.764;2023-01-15T05:33:36;8.85;;;6.15;;
75798;SDS011;65035;44.726;37.764;2023-01-15T05:34:42;7.22;;;5.90;;
75798;SDS011;65035;44.726;37.764;2023-01-15T05:36:06;6.55;;;5.57;;
75798;SDS011;65035;44.726;37.764;2023-01-15T05:37:32;7.45;;;6.43;;
75798;SDS011;65035;44.726;37.764;2023-01-15T05:38:37;8.80;;;6.80;;
75798;SDS011;65035;44.726;37.764;2023-01-15T05:39:55;6.95;;;5.50;;
75798;SDS011;65035;44.726;37.764;2023-01-15T05:41:02;7.25;;;5.80;;
75798;SDS011;65035;44.726;37.764;2023-01-15T05:42:47;7.13;;;5.32;;
75798;SDS011;65035;44.726;37.764;2023-01-15T05:44:11;7.28;;;5.57;;
75798;SDS011;65035;44.726;37.764;2023-01-15T05:45:16;6.72;;;5.85;;
75798;SDS011;65035;44.726;37.764;2023-01-15T05:46:40;6.85;;;6.10;;
75798;SDS011;65035;44.726;37.764;2023-01-15T05:47:46;6.78;;;5.90;;
75798;SDS011;65035;44.726;37.764;2023-01-15T05:48:50;7.22;;;5.80;;
75798;SDS011;65035;44.726;37.764;2023-01-15T05:50:13;6.88;;;6.13;;
75798;SDS011;65035;44.726;37.764;2023-01-15T05:51:18;6.93;;;6.15;;
75798;SDS011;65035;44.726;37.764;2023-01-15T05:52:22;7.30;;;6.28;;
75798;SDS011;65035;44.726;37.764;2023-01-15T05:54:34;6.97;;;4.07;;
75798;SDS011;65035;44.726;37.764;2023-01-15T05:55:40;6.30;;;3.60;;
75798;SDS011;65035;44.726;37.764;2023-01-15T05:56:45;7.60;;;4.22;;
75798;SDS011;65035;44.726;37.764;2023-01-15T05:57:51;6.55;;;3.92;;
75798;SDS011;65035;44.726;37.764;2023-01-15T05:58:56;6.25;;;3.65;;
75798;SDS011;65035;44.726;37.764;2023-01-15T06:00:00;5.93;;;3.90;;
75798;SDS011;65035;44.726;37.764;2023-01-15T06:01:13;6.93;;;3.88;;
75798;SDS011;65035;44.726;37.764;2023-01-15T06:02:18;6.10;;;3.88;;
75798;SDS011;65035;44.726;37.764;2023-01-15T06:03:21;5.00;;;3.60;;
75798;SDS011;65035;44.726;37.764;2023-01-15T06:04:26;5.63;;;3.85;;
75798;SDS011;65035;44.726;37.764;2023-01-15T06:05:29;6.22;;;3.60;;
75798;SDS011;65035;44.726;37.764;2023-01-15T06:06:53;6.53;;;4.00;;
75798;SDS011;65035;44.726;37.764;2023-01-15T06:08:02;5.70;;;3.40;;
75798;SDS011;65035;44.726;37.764;2023-01-15T06:09:06;5.18;;;3.03;;
75798;SDS011;65035;44.726;37.764;2023-01-15T06:10:11;6.95;;;4.30;;
75798;SDS011;65035;44.726;37.764;2023-01-15T06:11:14;5.38;;;3.63;;
75798;SDS011;65035;44.726;37.764;2023-01-15T06:12:38;5.63;;;3.92;;
75798;SDS011;65035;44.726;37.764;2023-01-15T06:14:03;5.97;;;3.53;;
75798;SDS011;65035;44.726;37.764;2023-01-15T06:15:08;5.22;;;3.80;;
75798;SDS011;65035;44.726;37.764;2023-01-15T06:16:14;5.68;;;3.60;;
75798;SDS011;65035;44.726;37.764;2023-01-15T06:17:18;5.85;;;3.65;;
75798;SDS011;65035;44.726;37.764;2023-01-15T06:18:22;7.85;;;4.03;;
75798;SDS011;65035;44.726;37.764;2023-01-15T06:19:26;6.43;;;3.65;;
75798;SDS011;65035;44.726;37.764;2023-01-15T06:20:50;6.68;;;3.47;;
75798;SDS011;65035;44.726;37.764;2023-01-15T06:21:53;7.65;;;3.42;;
75798;SDS011;65035;44.726;37.764;2023-01-15T06:22:58;6.22;;;3.85;;
75798;SDS011;65035;44.726;37.764;2023-01-15T06:24:04;6.75;;;4.13;;
75798;SDS011;65035;44.726;37.764;2023-01-15T06:25:09;6.10;;;3.85;;
75798;SDS011;65035;44.726;37.764;2023-01-15T06:26:33;6.50;;;5.07;;
75798;SDS011;65035;44.726;37.764;2023-01-15T06:27:40;6.57;;;4.55;;
75798;SDS011;65035;44.726;37.764;2023-01-15T06:28:47;7.90;;;3.88;;
75798;SDS011;65035;44.726;37.764;2023-01-15T06:29:52;7.18;;;4.20;;
75798;SDS011;65035;44.726;37.764;2023-01-15T06:30:56;7.25;;;4.28;;
75798;SDS011;65035;44.726;37.764;2023-01-15T06:32:01;6.70;;;3.83;;
75798;SDS011;65035;44.726;37.764;2023-01-15T06:33:05;9.45;;;3.78;;
75798;SDS011;65035;44.726;37.764;2023-01-15T06:34:29;7.03;;;5.85;;
75798;SDS011;65035;44.726;37.764;2023-01-15T06:35:33;7.00;;;3.72;;
75798;SDS011;65035;44.726;37.764;2023-01-15T06:36:38;7.32;;;4.15;;
75798;SDS011;65035;44.726;37.764;2023-01-15T06:38:01;6.90;;;4.28;;
75798;SDS011;65035;44.726;37.764;2023-01-15T06:39:05;6.00;;;3.95;;
75798;SDS011;65035;44.726;37.764;2023-01-15T06:40:16;6.38;;;3.50;;
75798;SDS011;65035;44.726;37.764;2023-01-15T06:41:22;5.32;;;4.05;;
75798;SDS011;65035;44.726;37.764;2023-01-15T06:42:45;5.88;;;4.15;;
75798;SDS011;65035;44.726;37.764;2023-01-15T06:44:11;7.30;;;3.75;;
75798;SDS011;65035;44.726;37.764;2023-01-15T06:45:57;6.75;;;3.95;;
75798;SDS011;65035;44.726;37.764;2023-01-15T06:47:19;6.65;;;3.60;;
75798;SDS011;65035;44.726;37.764;2023-01-15T06:48:25;5.70;;;3.53;;
75798;SDS011;65035;44.726;37.764;2023-01-15T06:49:42;7.60;;;4.03;;
75798;SDS011;65035;44.726;37.764;2023-01-15T06:50:46;6.25;;;3.70;;
75798;SDS011;65035;44.726;37.764;2023-01-15T06:51:50;6.07;;;3.80;;
75798;SDS011;65035;44.726;37.764;2023-01-15T06:52:55;6.57;;;4.05;;
75798;SDS011;65035;44.726;37.764;2023-01-15T06:54:18;6.93;;;3.78;;
75798;SDS011;65035;44.726;37.764;2023-01-15T06:55:21;7.47;;;4.20;;
75798;SDS011;65035;44.726;37.764;2023-01-15T06:56:25;6.50;;;4.32;;
75798;SDS011;65035;44.726;37.764;2023-01-15T06:57:32;6.30;;;3.80;;
75798;SDS011;65035;44.726;37.764;2023-01-15T06:58:37;6.22;;;3.83;;
75798;SDS011;65035;44.726;37.764;2023-01-15T07:00:00;7.05;;;4.10;;
75798;SDS011;65035;44.726;37.764;2023-01-15T07:01:24;7.88;;;4.35;;
75798;SDS011;65035;44.726;37.764;2023-01-15T07:02:52;5.63;;;3.42;;
75798;SDS011;65035;44.726;37.764;2023-01-15T07:04:16;6.88;;;3.75;;
75798;SDS011;65035;44.726;37.764;2023-01-15T07:05:20;7.57;;;4.47;;
75798;SDS011;65035;44.726;37.764;2023-01-15T07:06:26;6.97;;;5.55;;
75798;SDS011;65035;44.726;37.764;2023-01-15T07:07:49;7.22;;;4.22;;
75798;SDS011;65035;44.726;37.764;2023-01-15T07:08:54;8.73;;;4.03;;
75798;SDS011;65035;44.726;37.764;2023-01-15T07:09:58;6.30;;;3.75;;
75798;SDS011;65035;44.726;37.764;2023-01-15T07:11:21;5.53;;;3.92;;
75798;SDS011;65035;44.726;37.764;2023-01-15T07:12:26;6.60;;;3.85;;
75798;SDS011;65035;44.726;37.764;2023-01-15T07:13:50;7.20;;;4.43;;
75798;SDS011;65035;44.726;37.764;2023-01-15T07:15:08;6.90;;;4.15;;
75798;SDS011;65035;44.726;37.764;2023-01-15T07:16:14;6.38;;;3.75;;
75798;SDS011;65035;44.726;37.764;2023-01-15T07:17:53;6.40;;;3.75;;
75798;SDS011;65035;44.726;37.764;2023-01-15T07:19:00;7.53;;;4.10;;
75798;SDS011;65035;44.726;37.764;2023-01-15T07:20:24;6.93;;;3.78;;
75798;SDS011;65035;44.726;37.764;2023-01-15T07:21:28;6.97;;;4.05;;
75798;SDS011;65035;44.726;37.764;2023-01-15T07:22:33;8.07;;;3.70;;
75798;SDS011;65035;44.726;37.764;2023-01-15T07:23:37;7.30;;;4.25;;
75798;SDS011;65035;44.726;37.764;2023-01-15T07:25:01;7.20;;;4.18;;
75798;SDS011;65035;44.726;37.764;2023-01-15T07:27:08;7.10;;;4.07;;
75798;SDS011;65035;44.726;37.764;2023-01-15T07:28:12;8.10;;;4.40;;
75798;SDS011;65035;44.726;37.764;2023-01-15T07:29:35;8.35;;;4.18;;
75798;SDS011;65035;44.726;37.764;2023-01-15T07:30:44;7.50;;;3.53;;
75798;SDS011;65035;44.726;37.764;2023-01-15T07:31:49;7.45;;;4.50;;
75798;SDS011;65035;44.726;37.764;2023-01-15T07:33:13;6.18;;;4.10;;
75798;SDS011;65035;44.726;37.764;2023-01-15T07:34:36;7.18;;;3.75;;
75798;SDS011;65035;44.726;37.764;2023-01-15T07:36:03;7.53;;;3.88;;
75798;SDS011;65035;44.726;37.764;2023-01-15T07:37:09;8.70;;;4.35;;
75798;SDS011;65035;44.726;37.764;2023-01-15T07:38:15;7.03;;;3.67;;
75798;SDS011;65035;44.726;37.764;2023-01-15T07:39:19;7.20;;;3.85;;
75798;SDS011;65035;44.726;37.764;2023-01-15T07:40:43;6.70;;;4.30;;
75798;SDS011;65035;44.726;37.764;2023-01-15T07:41:47;9.65;;;4.05;;
75798;SDS011;65035;44.726;37.764;2023-01-15T07:43:28;7.38;;;3.95;;
75798;SDS011;65035;44.726;37.764;2023-01-15T07:45:10;7.07;;;3.85;;
75798;SDS011;65035;44.726;37.764;2023-01-15T07:47:54;7.00;;;4.13;;
75798;SDS011;65035;44.726;37.764;2023-01-15T07:50:39;7.88;;;3.85;;
75798;SDS011;65035;44.726;37.764;2023-01-15T07:51:43;7.55;;;4.30;;
75798;SDS011;65035;44.726;37.764;2023-01-15T07:52:52;7.20;;;4.10;;
75798;SDS011;65035;44.726;37.764;2023-01-15T07:54:15;7.32;;;4.05;;
75798;SDS011;65035;44.726;37.764;2023-01-15T07:55:21;7.68;;;3.25;;
75798;SDS011;65035;44.726;37.764;2023-01-15T07:56:26;8.00;;;4.10;;
75798;SDS011;65035;44.726;37.764;2023-01-15T07:57:29;7.88;;;4.00;;